Time;durP1;ratioP1;P1;durP2;ratioP2;P2;SDS_P1;SDS_P2;PMS_P1;PMS_P2;Temp;Humidity;BMP_temperature;BMP_pressure;BME280_temperature;BME280_humidity;BME280_pressure;Samples;Min_cycle;Max_cycle;Signal;HPM_P1;HPM_P2
2024/03/16 00:00:40;;;;;;;;;;;;;;;19.66;51.33;100464.31;2066416;28;6150;-67
2024/03/16 00:01:42;;;;;;;;;;;;;;;19.66;51.33;100470.06;2064165;28;2931;-68
2024/03/16 00:02:44;;;;;;;;;;;;;;;19.65;51.28;100474.34;2068448;28;2041;-68
2024/03/16 00:03:46;;;;;;;;;;;;;;;19.65;51.40;100480.06;2067925;28;1701;-68
2024/03/16 00:04:47;;;;;;;;;;;;;;;19.65;51.36;100476.44;2067619;28;2118;-69
2024/03/16 00:05:48;;;;;;;;;;;;;;;19.65;51.37;100474.34;2067571;28;2012;-67
2024/03/16 00:06:50;;;;;;;;;;;;;;;19.66;51.36;100475.81;2069204;28;2320;-68
2024/03/16 00:07:51;;;;;;;;;;;;;;;19.64;51.42;100480.72;2068437;28;1632;-68
2024/03/16 00:08:53;;;;;;;;;;;;;;;19.64;51.36;100484.31;2068339;28;2210;-68
2024/03/16 00:09:54;;;;;;;;;;;;;;;19.64;51.26;100475.72;2067393;28;2140;-68
2024/03/16 00:10:56;;;;;;;;;;;;;;;19.63;51.28;100477.13;2068358;28;1549;-68
2024/03/16 00:11:57;;;;;;;;;;;;;;;19.63;51.41;100477.13;2064819;28;2294;-68
2024/03/16 00:12:59;;;;;;;;;;;;;;;19.62;51.32;100469.88;2067686;28;2164;-68
2024/03/16 00:14:00;;;;;;;;;;;;;;;19.63;51.35;100467.72;2067881;28;1664;-68
2024/03/16 00:15:02;;;;;;;;;;;;;;;19.62;51.32;100475.63;2068324;28;1666;-68
2024/03/16 00:16:03;;;;;;;;;;;;;;;19.62;51.29;100469.88;2068682;28;2398;-68
2024/03/16 00:17:05;;;;;;;;;;;;;;;19.63;51.38;100473.47;2067091;28;1884;-68
2024/03/16 00:18:06;;;;;;;;;;;;;;;19.61;51.18;100465.53;2067730;28;1709;-67
2024/03/16 00:19:08;;;;;;;;;;;;;;;19.62;51.19;100472.75;2066536;28;2445;-67
2024/03/16 00:20:13;;;;;;;;;;;;;;;19.61;51.16;100477.03;2067312;28;2149;-67
2024/03/16 00:21:15;;;;;;;;;;;;;;;19.62;51.18;100475.63;2069453;28;2171;-68
2024/03/16 00:22:18;;;;;;;;;;;;;;;19.62;51.11;100472.00;2068397;28;1729;-68
2024/03/16 00:23:19;;;;;;;;;;;;;;;19.62;51.22;100469.13;2067750;28;2051;-68
2024/03/16 00:24:21;;;;;;;;;;;;;;;19.62;51.10;100469.88;2064732;28;1795;-68
2024/03/16 00:25:22;;;;;;;;;;;;;;;19.62;51.25;100469.13;2068406;28;1690;-68
2024/03/16 00:26:23;;;;;;;;;;;;;;;19.61;51.13;100474.16;2065479;28;2336;-68
2024/03/16 00:27:25;;;;;;;;;;;;;;;19.60;51.16;100469.78;2066364;28;2093;-68
2024/03/16 00:28:27;;;;;;;;;;;;;;;19.60;51.08;100466.91;2067937;28;1723;-68
2024/03/16 00:29:29;;;;;;;;;;;;;;;19.61;51.19;100467.66;2068347;28;2190;-65
2024/03/16 00:30:30;;;;;;;;;;;;;;;19.60;51.08;100461.16;2066369;28;6246;-64
2024/03/16 00:31:31;;;;;;;;;;;;;;;19.59;51.06;100459.69;2068377;28;1622;-68
2024/03/16 00:32:33;;;;;;;;;;;;;;;19.60;51.03;100464.03;2068240;28;1758;-65
2024/03/16 00:33:34;;;;;;;;;;;;;;;19.60;51.16;100466.91;2066614;28;2234;-64
2024/03/16 00:34:36;;;;;;;;;;;;;;;19.59;51.04;100464.72;2067759;28;2206;-65
2024/03/16 00:35:37;;;;;;;;;;;;;;;19.59;51.11;100459.69;2066810;28;1710;-64
2024/03/16 00:36:38;;;;;;;;;;;;;;;19.60;51.09;100466.19;2066286;28;1896;-65
2024/03/16 00:37:40;;;;;;;;;;;;;;;19.59;51.09;100459.69;2066590;28;2161;-65
2024/03/16 00:38:42;;;;;;;;;;;;;;;19.59;51.04;100462.56;2066399;28;1720;-65
2024/03/16 00:39:43;;;;;;;;;;;;;;;19.59;51.10;100458.97;2067362;28;2247;-65
2024/03/16 00:40:44;;;;;;;;;;;;;;;19.58;51.06;100469.69;2068440;28;2312;-64
2024/03/16 00:41:47;;;;;;;;;;;;;;;19.57;51.10;100462.47;2067923;28;1663;-65
2024/03/16 00:42:49;;;;;;;;;;;;;;;19.57;50.97;100461.75;2066846;28;1702;-65
2024/03/16 00:43:50;;;;;;;;;;;;;;;19.57;50.96;100462.47;2068520;28;2297;-64
2024/03/16 00:44:51;;;;;;;;;;;;;;;19.56;51.04;100461.00;2068072;28;1704;-65
2024/03/16 00:45:53;;;;;;;;;;;;;;;19.57;51.04;100468.22;2071038;28;2130;-65
2024/03/16 00:46:54;;;;;;;;;;;;;;;19.57;50.95;100462.47;2070279;28;1975;-65
2024/03/16 00:47:56;;;;;;;;;;;;;;;19.57;50.99;100465.34;2072209;28;2206;-64
2024/03/16 00:48:57;;;;;;;;;;;;;;;19.56;50.95;100461.00;2069620;28;2097;-65
2024/03/16 00:49:59;;;;;;;;;;;;;;;19.57;50.81;100458.88;2069624;28;1927;-65
2024/03/16 00:51:00;;;;;;;;;;;;;;;19.56;50.94;100466.75;2068866;28;1642;-65
2024/03/16 00:52:02;;;;;;;;;;;;;;;19.56;50.87;100460.25;2070686;28;1620;-65
2024/03/16 00:53:03;;;;;;;;;;;;;;;19.56;50.95;100468.88;2068648;28;2252;-65
2024/03/16 00:54:05;;;;;;;;;;;;;;;19.57;50.92;100464.63;2068917;28;2551;-64
2024/03/16 00:55:06;;;;;;;;;;;;;;;19.55;50.96;100462.38;2070518;28;1687;-64
2024/03/16 00:56:09;;;;;;;;;;;;;;;19.55;50.88;100471.00;2068822;28;1673;-65
2024/03/16 00:57:11;;;;;;;;;;;;;;;19.55;50.82;100458.78;2068993;28;1759;-65
2024/03/16 00:58:12;;;;;;;;;;;;;;;19.54;50.92;100460.91;2070697;28;1620;-65
2024/03/16 00:59:14;;;;;;;;;;;;;;;19.55;50.84;100456.66;2069772;28;2275;-65
2024/03/16 01:00:15;;;;;;;;;;;;;;;19.55;50.73;100455.91;2070258;28;6066;-65
2024/03/16 01:01:17;;;;;;;;;;;;;;;19.54;50.80;100469.53;2069673;28;2260;-64
2024/03/16 01:02:18;;;;;;;;;;;;;;;19.54;50.77;100458.06;2069673;28;1719;-64
2024/03/16 01:03:20;;;;;;;;;;;;;;;19.54;50.92;100463.78;2068409;28;2204;-64
2024/03/16 01:04:21;;;;;;;;;;;;;;;19.53;50.82;100459.44;2070026;28;1735;-65
2024/03/16 01:05:26;;;;;;;;;;;;;;;19.53;50.81;100462.31;2069296;28;2150;-64
2024/03/16 01:06:27;;;;;;;;;;;;;;;19.54;50.79;100460.16;2069532;28;1645;-65
2024/03/16 01:07:29;;;;;;;;;;;;;;;19.53;50.73;100467.31;2069642;28;2225;-64
2024/03/16 01:08:30;;;;;;;;;;;;;;;19.53;50.65;100462.31;2069512;28;2300;-64
2024/03/16 01:09:31;;;;;;;;;;;;;;;19.53;50.76;100468.03;2069347;28;2089;-64
2024/03/16 01:10:33;;;;;;;;;;;;;;;19.53;50.73;100462.31;2068562;28;1628;-65
2024/03/16 01:11:34;;;;;;;;;;;;;;;19.53;50.76;100467.31;2068897;28;2145;-65
2024/03/16 01:12:36;;;;;;;;;;;;;;;19.52;50.62;100457.22;2068158;28;1695;-64
2024/03/16 01:13:38;;;;;;;;;;;;;;;19.52;50.74;100472.31;2067786;28;2181;-65
2024/03/16 01:14:40;;;;;;;;;;;;;;;19.53;50.76;100462.31;2070405;28;2367;-65
2024/03/16 01:15:41;;;;;;;;;;;;;;;19.52;50.72;100460.09;2069786;28;2192;-65
2024/03/16 01:16:43;;;;;;;;;;;;;;;19.52;50.68;100460.84;2069512;28;1589;-65
2024/03/16 01:17:44;;;;;;;;;;;;;;;19.52;50.72;100460.09;2068854;28;2090;-65
2024/03/16 01:18:46;;;;;;;;;;;;;;;19.51;50.84;100459.34;2070158;28;1553;-64
2024/03/16 01:19:47;;;;;;;;;;;;;;;19.51;50.62;100453.59;2068336;28;2171;-65
2024/03/16 01:20:49;;;;;;;;;;;;;;;19.50;50.59;100457.88;2075863;28;1725;-64
2024/03/16 01:21:50;;;;;;;;;;;;;;;19.50;50.75;100455.00;2077178;28;2216;-65
2024/03/16 01:22:52;;;;;;;;;;;;;;;19.50;50.70;100460.75;2069819;28;1631;-64
2024/03/16 01:23:53;;;;;;;;;;;;;;;19.51;50.66;100453.59;2069635;28;1615;-64
2024/03/16 01:24:55;;;;;;;;;;;;;;;19.51;50.65;100461.47;2069984;28;1782;-65
2024/03/16 01:25:56;;;;;;;;;;;;;;;19.51;50.62;100458.59;2068979;28;2138;-65
2024/03/16 01:26:58;;;;;;;;;;;;;;;19.50;50.61;100457.88;2068278;28;2050;-64
2024/03/16 01:27:59;;;;;;;;;;;;;;;19.50;50.61;100457.88;2069020;28;2205;-64
2024/03/16 01:29:03;;;;;;;;;;;;;;;19.50;50.61;100460.75;2068549;28;2156;-64
2024/03/16 01:30:05;;;;;;;;;;;;;;;19.49;50.65;100453.50;2067456;28;6045;-65
2024/03/16 01:31:06;;;;;;;;;;;;;;;19.49;50.67;100453.50;2069327;28;2076;-65
2024/03/16 01:32:08;;;;;;;;;;;;;;;19.49;50.61;100450.63;2068289;28;1632;-65
2024/03/16 01:33:10;;;;;;;;;;;;;;;19.49;50.55;100459.25;2070831;28;1729;-65
2024/03/16 01:34:11;;;;;;;;;;;;;;;19.49;50.59;100452.78;2069121;28;2153;-65
2024/03/16 01:35:13;;;;;;;;;;;;;;;19.50;50.46;100455.00;2067183;28;2199;-65
2024/03/16 01:36:14;;;;;;;;;;;;;;;19.49;50.56;100453.50;2069720;28;1628;-64
2024/03/16 01:37:16;;;;;;;;;;;;;;;19.49;50.49;100458.50;2069075;28;1672;-64
2024/03/16 01:38:18;;;;;;;;;;;;;;;19.49;50.63;100456.38;2067947;28;2613;-65
2024/03/16 01:39:19;;;;;;;;;;;;;;;19.48;50.60;100454.16;2070111;28;2239;-65
2024/03/16 01:40:24;;;;;;;;;;;;;;;19.48;50.64;100460.66;2069669;28;1716;-65
2024/03/16 01:41:26;;;;;;;;;;;;;;;19.49;50.57;100456.38;2068331;28;1697;-64
2024/03/16 01:42:27;;;;;;;;;;;;;;;19.49;50.60;100455.63;2069064;28;2112;-65
2024/03/16 01:43:29;;;;;;;;;;;;;;;19.48;50.60;100460.66;2067815;28;2146;-65
2024/03/16 01:44:30;;;;;;;;;;;;;;;19.48;50.58;100454.91;2066877;28;1644;-64
2024/03/16 01:45:32;;;;;;;;;;;;;;;19.46;50.62;100452.69;2067796;28;2269;-65
2024/03/16 01:46:33;;;;;;;;;;;;;;;19.47;50.54;100453.44;2069827;28;1681;-65
2024/03/16 01:47:34;;;;;;;;;;;;;;;19.46;50.58;100451.94;2069410;28;2262;-65
2024/03/16 01:48:36;;;;;;;;;;;;;;;19.46;50.65;100457.69;2069331;28;2092;-65
2024/03/16 01:49:37;;;;;;;;;;;;;;;19.46;50.63;100457.69;2069282;28;2388;-65
2024/03/16 01:50:39;;;;;;;;;;;;;;;19.48;50.63;100460.66;2067659;28;2161;-64
2024/03/16 01:51:41;;;;;;;;;;;;;;;19.48;50.50;100457.03;2069406;28;2611;-64
2024/03/16 01:52:42;;;;;;;;;;;;;;;19.47;50.62;100459.19;2067494;28;2127;-64
2024/03/16 01:53:44;;;;;;;;;;;;;;;19.47;50.48;100464.94;2070026;28;1642;-64
2024/03/16 01:54:45;;;;;;;;;;;;;;;19.47;50.68;100459.19;2066607;28;2118;-65
2024/03/16 01:55:46;;;;;;;;;;;;;;;19.47;50.61;100459.19;2067074;28;1665;-64
2024/03/16 01:56:48;;;;;;;;;;;;;;;19.46;50.48;100464.16;2067953;28;2176;-65
2024/03/16 01:57:50;;;;;;;;;;;;;;;19.46;50.59;100466.28;2068304;28;2253;-64
2024/03/16 01:58:52;;;;;;;;;;;;;;;19.46;50.52;100461.28;2068011;28;2213;-64
2024/03/16 01:59:53;;;;;;;;;;;;;;;19.46;50.54;100457.69;2069074;28;2285;-65
2024/03/16 02:00:54;;;;;;;;;;;;;;;19.46;50.54;100460.56;2069161;28;6227;-64
2024/03/16 02:02:00;;;;;;;;;;;;;;;19.47;50.55;100459.19;2068186;28;2290;-65
2024/03/16 02:03:02;;;;;;;;;;;;;;;19.46;50.51;100463.44;2068806;28;1600;-64
2024/03/16 02:04:03;;;;;;;;;;;;;;;19.46;50.51;100460.56;2068514;28;2303;-65
2024/03/16 02:05:06;;;;;;;;;;;;;;;19.45;50.63;100468.44;2067906;28;2217;-65
2024/03/16 02:06:07;;;;;;;;;;;;;;;19.46;50.54;100463.44;2068442;28;2269;-65
2024/03/16 02:07:10;;;;;;;;;;;;;;;19.46;50.52;100463.44;2069651;28;1665;-64
2024/03/16 02:08:11;;;;;;;;;;;;;;;19.45;50.43;100468.44;2067246;28;2214;-65
2024/03/16 02:09:13;;;;;;;;;;;;;;;19.46;50.56;100469.16;2068999;28;1624;-65
2024/03/16 02:10:15;;;;;;;;;;;;;;;19.46;50.41;100469.16;2068900;28;1726;-65
2024/03/16 02:11:17;;;;;;;;;;;;;;;19.45;50.54;100467.72;2070210;28;1675;-65
2024/03/16 02:12:18;;;;;;;;;;;;;;;19.45;50.63;100473.44;2065000;28;2317;-65
2024/03/16 02:13:20;;;;;;;;;;;;;;;19.44;50.51;100469.09;2068801;28;1704;-64
2024/03/16 02:14:21;;;;;;;;;;;;;;;19.45;50.48;100470.56;2067645;28;2062;-64
2024/03/16 02:15:22;;;;;;;;;;;;;;;19.45;50.64;100474.19;2067093;28;2269;-65
2024/03/16 02:16:24;;;;;;;;;;;;;;;19.44;50.52;100460.47;2069177;28;1927;-65
2024/03/16 02:17:25;;;;;;;;;;;;;;;19.44;50.56;100466.22;2068315;28;1686;-65
2024/03/16 02:18:26;;;;;;;;;;;;;;;19.45;50.50;100473.44;2068155;28;2275;-65
2024/03/16 02:19:28;;;;;;;;;;;;;;;19.44;50.63;100466.22;2068043;28;2274;-65
2024/03/16 02:20:31;;;;;;;;;;;;;;;19.45;50.51;100470.56;2069602;28;1953;-65
2024/03/16 02:21:34;;;;;;;;;;;;;;;19.44;50.45;100466.22;2067853;28;2137;-64
2024/03/16 02:22:35;;;;;;;;;;;;;;;19.43;50.53;100474.09;2069309;28;1693;-65
2024/03/16 02:23:39;;;;;;;;;;;;;;;19.43;50.49;100470.47;2068239;28;2612;-65
2024/03/16 02:24:41;;;;;;;;;;;;;;;19.43;50.55;100471.22;2068117;28;1878;-65
2024/03/16 02:25:44;;;;;;;;;;;;;;;19.43;50.51;100474.09;2068115;28;1928;-65
2024/03/16 02:26:45;;;;;;;;;;;;;;;19.43;50.44;100474.09;2066716;28;1830;-65
2024/03/16 02:27:47;;;;;;;;;;;;;;;19.43;50.42;100471.22;2065445;28;2536;-65
2024/03/16 02:28:48;;;;;;;;;;;;;;;19.44;50.49;100471.94;2066614;28;2586;-65
2024/03/16 02:29:50;;;;;;;;;;;;;;;19.44;50.53;100469.09;2066539;28;1669;-64
2024/03/16 02:30:52;;;;;;;;;;;;;;;19.43;50.43;100470.47;2066686;28;6091;-65
2024/03/16 02:31:53;;;;;;;;;;;;;;;19.43;50.44;100476.22;2067848;28;1726;-64
2024/03/16 02:32:56;;;;;;;;;;;;;;;19.42;50.55;100475.50;2067882;28;1703;-65
2024/03/16 02:33:58;;;;;;;;;;;;;;;19.43;50.50;100481.97;2067223;28;2209;-64
2024/03/16 02:34:59;;;;;;;;;;;;;;;19.43;50.49;100481.97;2068235;28;2098;-64
2024/03/16 02:36:01;;;;;;;;;;;;;;;19.43;50.51;100476.22;2069776;28;1721;-65
2024/03/16 02:37:03;;;;;;;;;;;;;;;19.42;50.52;100474.72;2067061;28;1629;-65
2024/03/16 02:38:05;;;;;;;;;;;;;;;19.43;50.53;100481.97;2068133;28;2229;-65
2024/03/16 02:39:06;;;;;;;;;;;;;;;19.43;50.42;100484.84;2070547;28;1916;-65
2024/03/16 02:40:11;;;;;;;;;;;;;;;19.41;50.50;100479.00;2068278;28;2035;-64
2024/03/16 02:41:13;;;;;;;;;;;;;;;19.41;50.38;100481.88;2068210;28;2180;-64
2024/03/16 02:42:14;;;;;;;;;;;;;;;19.42;50.45;100480.47;2069256;28;1693;-65
2024/03/16 02:43:16;;;;;;;;;;;;;;;19.41;50.53;100479.00;2067221;28;2212;-65
2024/03/16 02:44:18;;;;;;;;;;;;;;;19.41;50.52;100481.88;2067288;28;2185;-65
2024/03/16 02:45:19;;;;;;;;;;;;;;;19.41;50.51;100484.75;2069685;28;2173;-65
2024/03/16 02:46:20;;;;;;;;;;;;;;;19.41;50.52;100476.13;2068725;28;2051;-64
2024/03/16 02:47:22;;;;;;;;;;;;;;;19.41;50.53;100479.00;2069633;28;1794;-65
2024/03/16 02:48:23;;;;;;;;;;;;;;;19.41;50.54;100473.25;2067456;28;1949;-64
2024/03/16 02:49:25;;;;;;;;;;;;;;;19.41;50.55;100473.25;2066954;28;2214;-65
2024/03/16 02:50:27;;;;;;;;;;;;;;;19.41;50.53;100479.00;2068666;28;2403;-65
2024/03/16 02:51:28;;;;;;;;;;;;;;;19.41;50.51;100482.59;2068609;28;2002;-65
2024/03/16 02:52:31;;;;;;;;;;;;;;;19.42;50.44;100486.22;2069406;28;1660;-64
2024/03/16 02:53:34;;;;;;;;;;;;;;;19.40;50.50;100478.28;2069024;28;2205;-65
2024/03/16 02:54:35;;;;;;;;;;;;;;;19.40;50.53;100483.25;2066620;28;1735;-65
2024/03/16 02:55:37;;;;;;;;;;;;;;;19.41;50.51;100484.75;2067986;28;2211;-64
2024/03/16 02:56:38;;;;;;;;;;;;;;;19.40;50.39;100477.50;2068359;28;1828;-64
2024/03/16 02:57:40;;;;;;;;;;;;;;;19.39;50.52;100487.53;2066670;28;2217;-64
2024/03/16 02:58:41;;;;;;;;;;;;;;;19.40;50.53;100483.25;2068443;28;1766;-65
2024/03/16 02:59:43;;;;;;;;;;;;;;;19.40;50.53;100480.38;2067402;28;2170;-64
2024/03/16 03:00:44;;;;;;;;;;;;;;;19.39;50.56;100482.50;2067222;28;6281;-65
2024/03/16 03:01:45;;;;;;;;;;;;;;;19.40;50.58;100472.53;2067852;28;2545;-65
2024/03/16 03:02:47;;;;;;;;;;;;;;;19.40;50.48;100480.38;2067418;28;2242;-65
2024/03/16 03:03:48;;;;;;;;;;;;;;;19.40;50.61;100477.50;2067037;28;2138;-65
2024/03/16 03:04:50;;;;;;;;;;;;;;;19.39;50.42;100476.78;2067968;28;1800;-64
2024/03/16 03:05:53;;;;;;;;;;;;;;;19.39;50.42;100476.78;2068916;28;2068;-65
2024/03/16 03:06:54;;;;;;;;;;;;;;;19.39;50.55;100478.91;2067633;28;1825;-64
2024/03/16 03:07:56;;;;;;;;;;;;;;;19.39;50.55;100476.03;2067474;28;2166;-64
2024/03/16 03:08:57;;;;;;;;;;;;;;;19.39;50.54;100473.91;2070150;28;1950;-65
2024/03/16 03:09:58;;;;;;;;;;;;;;;19.37;50.58;100479.56;2067260;28;1884;-64
2024/03/16 03:11:00;;;;;;;;;;;;;;;19.39;50.52;100470.28;2067574;28;2099;-65
2024/03/16 03:12:02;;;;;;;;;;;;;;;19.37;50.56;100473.81;2067183;28;2229;-65
2024/03/16 03:13:04;;;;;;;;;;;;;;;19.39;50.56;100481.78;2067434;28;2307;-65
2024/03/16 03:14:06;;;;;;;;;;;;;;;19.39;50.58;100476.03;2068365;28;1700;-64
2024/03/16 03:15:09;;;;;;;;;;;;;;;19.38;50.66;100481.06;2067468;28;2337;-65
2024/03/16 03:16:10;;;;;;;;;;;;;;;19.39;50.60;100476.03;2069206;28;1654;-64
2024/03/16 03:17:12;;;;;;;;;;;;;;;19.37;50.62;100473.06;2070614;28;1782;-65
2024/03/16 03:18:13;;;;;;;;;;;;;;;19.37;50.50;100479.56;2067264;28;1764;-64
2024/03/16 03:19:14;;;;;;;;;;;;;;;19.39;50.62;100481.78;2067081;28;2248;-65
2024/03/16 03:20:20;;;;;;;;;;;;;;;19.37;50.59;100479.56;2068179;28;1659;-64
2024/03/16 03:21:22;;;;;;;;;;;;;;;19.37;50.66;100484.56;2066371;28;2460;-64
2024/03/16 03:22:23;;;;;;;;;;;;;;;19.37;50.66;100478.81;2066938;28;2221;-65
2024/03/16 03:23:24;;;;;;;;;;;;;;;19.36;50.48;100478.09;2067353;28;2269;-65
2024/03/16 03:24:26;;;;;;;;;;;;;;;19.37;50.50;100490.31;2066472;28;2255;-65
2024/03/16 03:25:28;;;;;;;;;;;;;;;19.37;50.56;100484.56;2068079;28;2220;-65
2024/03/16 03:26:29;;;;;;;;;;;;;;;19.37;50.59;100481.69;2067425;28;1659;-64
2024/03/16 03:27:33;;;;;;;;;;;;;;;19.36;50.67;100477.34;2067452;28;2242;-65
2024/03/16 03:28:35;;;;;;;;;;;;;;;19.36;50.65;100485.97;2067380;28;1914;-65
2024/03/16 03:29:37;;;;;;;;;;;;;;;19.36;50.55;100483.09;2066508;28;2146;-65
2024/03/16 03:30:38;;;;;;;;;;;;;;;19.37;50.65;100478.81;2067813;28;6086;-65
2024/03/16 03:31:39;;;;;;;;;;;;;;;19.35;50.63;100482.34;2067483;28;1626;-65
2024/03/16 03:32:41;;;;;;;;;;;;;;;19.36;50.66;100485.97;2069407;28;1636;-65
2024/03/16 03:33:42;;;;;;;;;;;;;;;19.36;50.66;100489.56;2068199;28;1887;-64
2024/03/16 03:34:44;;;;;;;;;;;;;;;19.35;50.71;100481.59;2067021;28;2066;-64
2024/03/16 03:35:45;;;;;;;;;;;;;;;19.34;50.58;100491.63;2066234;28;2227;-64
2024/03/16 03:36:47;;;;;;;;;;;;;;;19.36;50.65;100488.84;2068087;28;1732;-64
2024/03/16 03:37:48;;;;;;;;;;;;;;;19.34;50.69;100483.72;2067926;28;1576;-65
2024/03/16 03:38:49;;;;;;;;;;;;;;;19.35;50.72;100484.47;2066080;28;2194;-65
2024/03/16 03:39:52;;;;;;;;;;;;;;;19.35;50.65;100487.34;2066101;28;2078;-65
2024/03/16 03:40:54;;;;;;;;;;;;;;;19.36;50.64;100497.44;2068881;28;1606;-65
2024/03/16 03:41:55;;;;;;;;;;;;;;;19.35;50.69;100495.94;2067747;28;1693;-65
2024/03/16 03:43:00;;;;;;;;;;;;;;;19.34;50.56;100498.09;2066261;28;2212;-65
2024/03/16 03:44:09;;;;;;;;;;;;;;;19.35;50.70;100487.34;2068471;28;2084;-65
2024/03/16 03:45:28;;;;;;;;;;;;;;;19.35;50.62;100487.34;2069048;28;1913;-64
2024/03/16 03:46:39;;;;;;;;;;;;;;;19.35;50.68;100490.22;2070012;28;2173;-64
2024/03/16 03:48:00;;;;;;;;;;;;;;;19.35;50.68;100487.34;2067548;28;1660;-64
2024/03/16 03:49:11;;;;;;;;;;;;;;;19.37;50.66;100490.31;2067506;28;1976;-64
2024/03/16 03:50:13;;;;;;;;;;;;;;;19.37;50.66;100490.31;2066871;28;2254;-64
2024/03/16 03:51:14;;;;;;;;;;;;;;;19.39;50.69;100496.13;2068210;28;2641;-64
2024/03/16 03:52:16;;;;;;;;;;;;;;;19.39;50.63;100493.28;2068367;28;2217;-64
2024/03/16 03:53:18;;;;;;;;;;;;;;;19.40;50.72;100494.75;2069095;28;2196;-65
2024/03/16 03:54:19;;;;;;;;;;;;;;;19.40;50.66;100486.13;2067042;28;2136;-65
2024/03/16 03:55:21;;;;;;;;;;;;;;;19.41;50.67;100493.38;2067151;28;1865;-65
2024/03/16 03:56:22;;;;;;;;;;;;;;;19.40;50.69;100489.75;2067769;28;2270;-65
2024/03/16 03:57:24;;;;;;;;;;;;;;;19.41;50.73;100494.09;2066852;28;1695;-65
2024/03/16 03:58:25;;;;;;;;;;;;;;;19.44;50.64;100492.06;2066748;28;2170;-64
2024/03/16 03:59:27;;;;;;;;;;;;;;;19.42;50.59;100491.97;2068356;28;2171;-64
2024/03/16 04:00:28;;;;;;;;;;;;;;;19.44;50.59;100494.91;2064676;28;5975;-65
2024/03/16 04:01:30;;;;;;;;;;;;;;;19.44;50.52;100498.53;2066808;28;2309;-65
2024/03/16 04:02:31;;;;;;;;;;;;;;;19.46;50.65;100500.75;2067282;28;2598;-65
2024/03/16 04:03:33;;;;;;;;;;;;;;;19.46;50.52;100492.16;2066463;28;2158;-64
2024/03/16 04:04:34;;;;;;;;;;;;;;;19.46;50.61;100503.63;2064338;28;2275;-65
2024/03/16 04:05:36;;;;;;;;;;;;;;;19.45;50.59;100497.16;2068699;28;2138;-65
2024/03/16 04:06:38;;;;;;;;;;;;;;;19.45;50.67;100499.28;2067829;28;1753;-64
2024/03/16 04:07:39;;;;;;;;;;;;;;;19.45;50.67;100494.28;2065932;28;2129;-64
2024/03/16 04:08:40;;;;;;;;;;;;;;;19.46;50.68;100497.88;2067557;28;2323;-64
2024/03/16 04:09:44;;;;;;;;;;;;;;;19.45;50.69;100490.69;2068794;28;2036;-65
2024/03/16 04:10:46;;;;;;;;;;;;;;;19.45;50.58;100496.41;2067405;28;2164;-65
2024/03/16 04:11:47;;;;;;;;;;;;;;;19.45;50.74;100490.69;2066142;28;2065;-65
2024/03/16 04:12:48;;;;;;;;;;;;;;;19.45;50.67;100496.41;2067039;28;2215;-64
2024/03/16 04:13:50;;;;;;;;;;;;;;;19.45;50.82;100502.16;2067991;28;2178;-65
2024/03/16 04:14:52;;;;;;;;;;;;;;;19.45;50.79;100499.28;2064000;28;2217;-65
2024/03/16 04:15:54;;;;;;;;;;;;;;;19.46;50.70;100495.00;2065004;28;2249;-65
2024/03/16 04:16:55;;;;;;;;;;;;;;;19.45;50.67;100499.28;2067637;28;1706;-65
2024/03/16 04:17:57;;;;;;;;;;;;;;;19.44;50.85;100495.66;2066961;28;2177;-64
2024/03/16 04:18:58;;;;;;;;;;;;;;;19.44;50.79;100494.91;2065806;28;2104;-65
2024/03/16 04:19:59;;;;;;;;;;;;;;;19.44;50.86;100494.91;2065603;28;2252;-65
2024/03/16 04:21:02;;;;;;;;;;;;;;;19.44;50.77;100489.19;2068007;28;2313;-65
2024/03/16 04:22:05;;;;;;;;;;;;;;;19.44;50.92;100495.66;2066608;28;1936;-65
2024/03/16 04:23:08;;;;;;;;;;;;;;;19.43;50.82;100488.44;2067428;28;1658;-65
2024/03/16 04:24:09;;;;;;;;;;;;;;;19.44;50.85;100483.44;2066304;28;2295;-65
2024/03/16 04:25:14;;;;;;;;;;;;;;;19.43;50.87;100493.44;2067384;28;2150;-64
2024/03/16 04:26:15;;;;;;;;;;;;;;;19.44;50.93;100492.06;2066133;28;2212;-65
2024/03/16 04:27:16;;;;;;;;;;;;;;;19.45;51.00;100490.69;2066151;28;2295;-64
2024/03/16 04:28:18;;;;;;;;;;;;;;;19.53;51.29;100499.63;2066140;28;2256;-63
2024/03/16 04:29:19;;;;;;;;;;;;;;;19.56;51.03;100495.47;2067557;28;1918;-65
2024/03/16 04:30:21;;;;;;;;;;;;;;;19.52;51.16;100501.03;2067626;28;6303;-65
2024/03/16 04:31:22;;;;;;;;;;;;;;;19.49;51.17;100496.56;2067332;28;1697;-64
2024/03/16 04:32:26;;;;;;;;;;;;;;;19.49;51.01;100495.84;2064891;28;190852;-64
2024/03/16 04:33:28;;;;;;;;;;;;;;;19.47;51.16;100499.38;2074509;28;1757;-64
2024/03/16 04:34:29;;;;;;;;;;;;;;;19.46;51.12;100497.88;2069737;28;2209;-64
2024/03/16 04:35:30;;;;;;;;;;;;;;;19.47;51.17;100502.25;2066550;28;1652;-64
2024/03/16 04:36:32;;;;;;;;;;;;;;;19.47;51.09;100496.50;2068056;28;2374;-64
2024/03/16 04:37:33;;;;;;;;;;;;;;;19.47;50.96;100499.38;2068622;28;1706;-64
2024/03/16 04:38:35;;;;;;;;;;;;;;;19.48;51.02;100497.25;2066345;28;1665;-64
2024/03/16 04:39:43;;;;;;;;;;;;;;;19.49;50.94;100501.59;2069025;28;1696;-64
2024/03/16 04:40:44;;;;;;;;;;;;;;;19.49;51.02;100508.06;2068011;28;1661;-64
2024/03/16 04:41:46;;;;;;;;;;;;;;;19.49;50.99;100508.06;2069080;28;1716;-64
2024/03/16 04:42:47;;;;;;;;;;;;;;;19.51;50.97;100511.03;2067304;28;2130;-64
2024/03/16 04:43:49;;;;;;;;;;;;;;;19.51;50.82;100504.56;2070014;28;1656;-64
2024/03/16 04:44:50;;;;;;;;;;;;;;;19.52;51.00;100509.66;2068455;28;2245;-64
2024/03/16 04:45:51;;;;;;;;;;;;;;;19.52;50.86;100503.91;2067361;28;2190;-64
2024/03/16 04:46:54;;;;;;;;;;;;;;;19.54;51.03;100511.84;2068067;28;1699;-64
2024/03/16 04:47:56;;;;;;;;;;;;;;;19.53;51.04;100508.25;2068507;28;1565;-64
2024/03/16 04:48:57;;;;;;;;;;;;;;;19.53;50.90;100505.38;2066755;28;2078;-65
2024/03/16 04:49:59;;;;;;;;;;;;;;;19.54;51.11;100509.75;2068080;28;1907;-64
2024/03/16 04:51:00;;;;;;;;;;;;;;;19.53;50.95;100511.13;2069138;28;2304;-64
2024/03/16 04:52:02;;;;;;;;;;;;;;;19.54;51.16;100514.72;2066443;28;1723;-64
2024/03/16 04:53:04;;;;;;;;;;;;;;;19.52;51.18;100512.53;2067160;28;1803;-64
2024/03/16 04:54:05;;;;;;;;;;;;;;;19.55;51.16;100516.22;2066365;28;2038;-64
2024/03/16 04:55:06;;;;;;;;;;;;;;;19.55;51.18;100513.34;2068329;28;2154;-64
2024/03/16 04:56:08;;;;;;;;;;;;;;;19.54;51.28;100517.59;2068055;28;2273;-64
2024/03/16 04:57:09;;;;;;;;;;;;;;;19.54;51.14;100521.22;2067250;28;2337;-64
2024/03/16 04:58:10;;;;;;;;;;;;;;;19.54;51.08;100514.72;2066712;28;2249;-64
2024/03/16 04:59:12;;;;;;;;;;;;;;;19.53;51.25;100519.72;2068983;28;1617;-64
2024/03/16 05:00:14;;;;;;;;;;;;;;;19.53;51.23;100508.25;2067909;28;6657;-64
2024/03/16 05:01:16;;;;;;;;;;;;;;;19.54;51.28;100515.50;2067142;28;2221;-64
2024/03/16 05:02:17;;;;;;;;;;;;;;;19.53;51.17;100514.00;2067055;28;2328;-64
2024/03/16 05:03:19;;;;;;;;;;;;;;;19.53;51.23;100514.00;2067300;28;2208;-65
2024/03/16 05:04:20;;;;;;;;;;;;;;;19.53;51.37;100516.88;2067858;28;2294;-64
2024/03/16 05:05:22;;;;;;;;;;;;;;;19.53;51.14;100514.00;2066988;28;2162;-64
2024/03/16 05:06:23;;;;;;;;;;;;;;;19.53;51.14;100516.13;2067730;28;2531;-64
2024/03/16 05:07:25;;;;;;;;;;;;;;;19.52;51.21;100518.28;2066197;28;1605;-64
2024/03/16 05:08:26;;;;;;;;;;;;;;;19.53;51.21;100522.59;2066169;28;2238;-65
2024/03/16 05:09:28;;;;;;;;;;;;;;;19.52;51.08;100515.41;2067053;28;2361;-64
2024/03/16 05:10:30;;;;;;;;;;;;;;;19.53;51.30;100524.75;2067443;28;2264;-64
2024/03/16 05:11:32;;;;;;;;;;;;;;;19.52;51.17;100529.75;2066972;28;2260;-64
2024/03/16 05:12:33;;;;;;;;;;;;;;;19.52;51.13;100524.00;2068066;28;2205;-64
2024/03/16 05:13:35;;;;;;;;;;;;;;;19.52;51.16;100524.00;2068047;28;1589;-64
2024/03/16 05:14:36;;;;;;;;;;;;;;;19.52;51.30;100529.75;2066492;28;2317;-64
2024/03/16 05:15:37;;;;;;;;;;;;;;;19.52;51.17;100521.13;2068360;28;2115;-64
2024/03/16 05:16:42;;;;;;;;;;;;;;;19.52;51.28;100526.88;2067350;28;2300;-65
2024/03/16 05:17:43;;;;;;;;;;;;;;;19.52;51.18;100518.28;2067789;28;1527;-64
2024/03/16 05:18:44;;;;;;;;;;;;;;;19.52;51.26;100517.53;2067419;28;2325;-64
2024/03/16 05:19:46;;;;;;;;;;;;;;;19.52;51.12;100529.75;2067600;28;1554;-64
2024/03/16 05:20:50;;;;;;;;;;;;;;;19.51;51.11;100519.66;2066963;28;2075;-65
2024/03/16 05:21:51;;;;;;;;;;;;;;;19.51;51.32;100525.38;2067816;28;2189;-64
2024/03/16 05:22:52;;;;;;;;;;;;;;;19.51;51.31;100519.66;2068229;28;2329;-64